sensor_id;sensor_type;location;lat;lon;timestamp;P1;durP1;ratioP1;P2;durP2;ratioP2
37529;SDS011;23374;52.758;6.872;2023-08-17T00:01:19;4.77;;;1.97;;
37529;SDS011;23374;52.758;6.872;2023-08-17T00:03:39;5.67;;;1.80;;
37529;SDS011;23374;52.758;6.872;2023-08-17T00:05:59;5.50;;;2.00;;
37529;SDS011;23374;52.758;6.872;2023-08-17T00:08:19;4.27;;;2.00;;
37529;SDS011;23374;52.758;6.872;2023-08-17T00:10:40;3.13;;;2.00;;
37529;SDS011;23374;52.758;6.872;2023-08-17T00:13:00;3.67;;;1.87;;
37529;SDS011;23374;52.758;6.872;2023-08-17T00:15:22;3.00;;;1.80;;
37529;SDS011;23374;52.758;6.872;2023-08-17T00:17:42;3.63;;;1.90;;
37529;SDS011;23374;52.758;6.872;2023-08-17T00:20:03;8.07;;;2.10;;
37529;SDS011;23374;52.758;6.872;2023-08-17T00:22:25;3.23;;;1.87;;
37529;SDS011;23374;52.758;6.872;2023-08-17T00:24:45;3.43;;;1.93;;
37529;SDS011;23374;52.758;6.872;2023-08-17T00:27:06;3.07;;;1.87;;
37529;SDS011;23374;52.758;6.872;2023-08-17T00:29:26;5.90;;;2.27;;
37529;SDS011;23374;52.758;6.872;2023-08-17T00:31:47;5.50;;;2.23;;
37529;SDS011;23374;52.758;6.872;2023-08-17T00:34:07;2.73;;;1.80;;
37529;SDS011;23374;52.758;6.872;2023-08-17T00:36:28;4.30;;;2.30;;
37529;SDS011;23374;52.758;6.872;2023-08-17T00:38:48;2.93;;;1.90;;
37529;SDS011;23374;52.758;6.872;2023-08-17T00:41:08;3.10;;;2.00;;
37529;SDS011;23374;52.758;6.872;2023-08-17T00:43:28;2.53;;;1.80;;
37529;SDS011;23374;52.758;6.872;2023-08-17T00:45:49;5.10;;;1.90;;
37529;SDS011;23374;52.758;6.872;2023-08-17T00:48:09;4.43;;;1.77;;
37529;SDS011;23374;52.758;6.872;2023-08-17T00:50:31;6.60;;;1.93;;
37529;SDS011;23374;52.758;6.872;2023-08-17T00:52:52;6.23;;;1.60;;
37529;SDS011;23374;52.758;6.872;2023-08-17T00:55:13;3.23;;;1.90;;
37529;SDS011;23374;52.758;6.872;2023-08-17T00:57:33;4.67;;;1.90;;
37529;SDS011;23374;52.758;6.872;2023-08-17T00:59:55;6.93;;;2.00;;
37529;SDS011;23374;52.758;6.872;2023-08-17T01:02:17;5.13;;;1.90;;
37529;SDS011;23374;52.758;6.872;2023-08-17T01:04:37;2.60;;;1.80;;
37529;SDS011;23374;52.758;6.872;2023-08-17T01:06:57;2.40;;;1.50;;
37529;SDS011;23374;52.758;6.872;2023-08-17T01:09:18;4.47;;;1.77;;
37529;SDS011;23374;52.758;6.872;2023-08-17T01:11:54;5.03;;;1.67;;
37529;SDS011;23374;52.758;6.872;2023-08-17T01:14:59;2.73;;;2.00;;
37529;SDS011;23374;52.758;6.872;2023-08-17T01:17:45;2.20;;;1.63;;
37529;SDS011;23374;52.758;6.872;2023-08-17T01:20:26;2.47;;;1.83;;
37529;SDS011;23374;52.758;6.872;2023-08-17T01:22:51;3.73;;;1.87;;
37529;SDS011;23374;52.758;6.872;2023-08-17T01:25:13;4.13;;;1.30;;
37529;SDS011;23374;52.758;6.872;2023-08-17T01:27:40;3.40;;;1.60;;
37529;SDS011;23374;52.758;6.872;2023-08-17T01:30:01;4.83;;;2.10;;
37529;SDS011;23374;52.758;6.872;2023-08-17T01:32:30;6.77;;;1.70;;
37529;SDS011;23374;52.758;6.872;2023-08-17T01:35:04;3.73;;;1.50;;
37529;SDS011;23374;52.758;6.872;2023-08-17T01:37:47;2.43;;;1.43;;
37529;SDS011;23374;52.758;6.872;2023-08-17T01:40:11;3.40;;;1.57;;
37529;SDS011;23374;52.758;6.872;2023-08-17T01:42:33;3.40;;;1.57;;
37529;SDS011;23374;52.758;6.872;2023-08-17T01:44:54;2.90;;;1.57;;
37529;SDS011;23374;52.758;6.872;2023-08-17T01:47:14;2.43;;;1.37;;
37529;SDS011;23374;52.758;6.872;2023-08-17T01:49:35;2.27;;;1.40;;
37529;SDS011;23374;52.758;6.872;2023-08-17T01:51:55;3.70;;;1.70;;
37529;SDS011;23374;52.758;6.872;2023-08-17T01:54:16;4.33;;;1.80;;
37529;SDS011;23374;52.758;6.872;2023-08-17T01:56:36;5.23;;;1.60;;
37529;SDS011;23374;52.758;6.872;2023-08-17T01:58:56;3.53;;;1.83;;
37529;SDS011;23374;52.758;6.872;2023-08-17T02:01:17;3.43;;;1.33;;
37529;SDS011;23374;52.758;6.872;2023-08-17T02:03:37;2.87;;;1.40;;
37529;SDS011;23374;52.758;6.872;2023-08-17T02:05:58;3.20;;;1.70;;
37529;SDS011;23374;52.758;6.872;2023-08-17T02:08:19;2.63;;;1.57;;
37529;SDS011;23374;52.758;6.872;2023-08-17T02:10:39;2.77;;;1.80;;
37529;SDS011;23374;52.758;6.872;2023-08-17T02:13:00;2.83;;;2.00;;
37529;SDS011;23374;52.758;6.872;2023-08-17T02:15:20;5.63;;;1.50;;
37529;SDS011;23374;52.758;6.872;2023-08-17T02:17:40;2.73;;;1.53;;
37529;SDS011;23374;52.758;6.872;2023-08-17T02:20:00;2.50;;;1.40;;
37529;SDS011;23374;52.758;6.872;2023-08-17T02:22:21;6.63;;;1.90;;
37529;SDS011;23374;52.758;6.872;2023-08-17T02:24:41;1.80;;;1.30;;
37529;SDS011;23374;52.758;6.872;2023-08-17T02:27:02;2.13;;;1.50;;
37529;SDS011;23374;52.758;6.872;2023-08-17T02:29:22;3.80;;;1.47;;
37529;SDS011;23374;52.758;6.872;2023-08-17T02:31:43;6.07;;;1.67;;
37529;SDS011;23374;52.758;6.872;2023-08-17T02:34:03;1.60;;;1.40;;
37529;SDS011;23374;52.758;6.872;2023-08-17T02:36:25;3.03;;;1.50;;
37529;SDS011;23374;52.758;6.872;2023-08-17T02:38:45;3.23;;;1.50;;
37529;SDS011;23374;52.758;6.872;2023-08-17T02:41:05;4.43;;;1.67;;
37529;SDS011;23374;52.758;6.872;2023-08-17T02:43:26;4.30;;;1.70;;
37529;SDS011;23374;52.758;6.872;2023-08-17T02:45:46;3.90;;;1.50;;
37529;SDS011;23374;52.758;6.872;2023-08-17T02:48:06;2.13;;;1.50;;
37529;SDS011;23374;52.758;6.872;2023-08-17T02:50:26;4.00;;;1.30;;
37529;SDS011;23374;52.758;6.872;2023-08-17T02:52:47;5.00;;;1.40;;
37529;SDS011;23374;52.758;6.872;2023-08-17T02:55:07;2.40;;;1.43;;
37529;SDS011;23374;52.758;6.872;2023-08-17T02:57:28;4.33;;;1.33;;
37529;SDS011;23374;52.758;6.872;2023-08-17T02:59:48;2.73;;;1.43;;
37529;SDS011;23374;52.758;6.872;2023-08-17T03:02:08;1.90;;;1.33;;
37529;SDS011;23374;52.758;6.872;2023-08-17T03:04:29;4.97;;;1.43;;
37529;SDS011;23374;52.758;6.872;2023-08-17T03:06:49;3.63;;;1.50;;
37529;SDS011;23374;52.758;6.872;2023-08-17T03:09:09;3.57;;;1.53;;
37529;SDS011;23374;52.758;6.872;2023-08-17T03:11:30;3.60;;;1.67;;
37529;SDS011;23374;52.758;6.872;2023-08-17T03:13:51;7.07;;;1.63;;
37529;SDS011;23374;52.758;6.872;2023-08-17T03:16:14;5.77;;;1.30;;
37529;SDS011;23374;52.758;6.872;2023-08-17T03:18:35;4.10;;;1.60;;
37529;SDS011;23374;52.758;6.872;2023-08-17T03:20:55;1.97;;;1.20;;
37529;SDS011;23374;52.758;6.872;2023-08-17T03:23:15;2.77;;;1.50;;
37529;SDS011;23374;52.758;6.872;2023-08-17T03:25:36;4.47;;;1.63;;
37529;SDS011;23374;52.758;6.872;2023-08-17T03:27:57;5.67;;;1.83;;
37529;SDS011;23374;52.758;6.872;2023-08-17T03:30:17;2.50;;;1.67;;
37529;SDS011;23374;52.758;6.872;2023-08-17T03:32:37;2.67;;;1.60;;
37529;SDS011;23374;52.758;6.872;2023-08-17T03:34:57;6.03;;;1.70;;
37529;SDS011;23374;52.758;6.872;2023-08-17T03:37:18;6.03;;;1.50;;
37529;SDS011;23374;52.758;6.872;2023-08-17T03:39:38;4.07;;;1.63;;
37529;SDS011;23374;52.758;6.872;2023-08-17T03:41:58;4.13;;;1.50;;
37529;SDS011;23374;52.758;6.872;2023-08-17T03:44:19;2.77;;;1.40;;
37529;SDS011;23374;52.758;6.872;2023-08-17T03:46:39;4.00;;;1.90;;
37529;SDS011;23374;52.758;6.872;2023-08-17T03:48:59;4.00;;;1.77;;
37529;SDS011;23374;52.758;6.872;2023-08-17T03:51:20;4.10;;;1.50;;
37529;SDS011;23374;52.758;6.872;2023-08-17T03:53:40;4.10;;;1.73;;
37529;SDS011;23374;52.758;6.872;2023-08-17T03:56:00;3.97;;;1.67;;
37529;SDS011;23374;52.758;6.872;2023-08-17T03:58:21;5.57;;;1.90;;
37529;SDS011;23374;52.758;6.872;2023-08-17T04:00:41;5.47;;;1.77;;
37529;SDS011;23374;52.758;6.872;2023-08-17T04:03:03;6.10;;;1.70;;
37529;SDS011;23374;52.758;6.872;2023-08-17T04:05:23;7.20;;;2.07;;
37529;SDS011;23374;52.758;6.872;2023-08-17T04:07:44;3.63;;;1.93;;
37529;SDS011;23374;52.758;6.872;2023-08-17T04:10:08;3.17;;;2.30;;
37529;SDS011;23374;52.758;6.872;2023-08-17T04:12:28;4.27;;;1.73;;
37529;SDS011;23374;52.758;6.872;2023-08-17T04:14:49;5.57;;;2.17;;
37529;SDS011;23374;52.758;6.872;2023-08-17T04:17:09;5.53;;;1.90;;
37529;SDS011;23374;52.758;6.872;2023-08-17T04:19:29;3.13;;;2.10;;
37529;SDS011;23374;52.758;6.872;2023-08-17T04:21:49;3.10;;;1.97;;
37529;SDS011;23374;52.758;6.872;2023-08-17T04:24:09;3.23;;;1.87;;
37529;SDS011;23374;52.758;6.872;2023-08-17T04:26:30;6.37;;;2.03;;
37529;SDS011;23374;52.758;6.872;2023-08-17T04:28:50;4.80;;;2.10;;
37529;SDS011;23374;52.758;6.872;2023-08-17T04:31:11;4.10;;;1.60;;
37529;SDS011;23374;52.758;6.872;2023-08-17T04:33:31;5.50;;;2.03;;
37529;SDS011;23374;52.758;6.872;2023-08-17T04:35:52;6.80;;;2.17;;
37529;SDS011;23374;52.758;6.872;2023-08-17T04:38:12;4.40;;;1.80;;
37529;SDS011;23374;52.758;6.872;2023-08-17T04:40:32;5.70;;;2.37;;
37529;SDS011;23374;52.758;6.872;2023-08-17T04:42:53;7.17;;;2.20;;
37529;SDS011;23374;52.758;6.872;2023-08-17T04:45:14;3.27;;;2.10;;
37529;SDS011;23374;52.758;6.872;2023-08-17T04:47:34;2.50;;;2.03;;
37529;SDS011;23374;52.758;6.872;2023-08-17T04:49:54;7.57;;;2.03;;
37529;SDS011;23374;52.758;6.872;2023-08-17T04:52:15;6.37;;;2.10;;
37529;SDS011;23374;52.758;6.872;2023-08-17T04:54:35;2.63;;;1.80;;
37529;SDS011;23374;52.758;6.872;2023-08-17T04:56:56;6.20;;;2.23;;
37529;SDS011;23374;52.758;6.872;2023-08-17T04:59:16;3.93;;;1.43;;
37529;SDS011;23374;52.758;6.872;2023-08-17T05:01:37;5.87;;;2.13;;
37529;SDS011;23374;52.758;6.872;2023-08-17T05:03:57;4.27;;;1.97;;
37529;SDS011;23374;52.758;6.872;2023-08-17T05:06:18;5.77;;;1.70;;
37529;SDS011;23374;52.758;6.872;2023-08-17T05:08:38;4.10;;;2.10;;
37529;SDS011;23374;52.758;6.872;2023-08-17T05:10:58;3.83;;;1.70;;
37529;SDS011;23374;52.758;6.872;2023-08-17T05:13:18;5.20;;;2.00;;
37529;SDS011;23374;52.758;6.872;2023-08-17T05:15:39;3.97;;;1.47;;
37529;SDS011;23374;52.758;6.872;2023-08-17T05:17:59;6.03;;;1.67;;
37529;SDS011;23374;52.758;6.872;2023-08-17T05:20:20;6.10;;;1.70;;
37529;SDS011;23374;52.758;6.872;2023-08-17T05:22:40;5.27;;;2.00;;
37529;SDS011;23374;52.758;6.872;2023-08-17T05:25:01;2.80;;;1.60;;
37529;SDS011;23374;52.758;6.872;2023-08-17T05:27:21;5.20;;;1.90;;
37529;SDS011;23374;52.758;6.872;2023-08-17T05:29:42;3.27;;;1.90;;
37529;SDS011;23374;52.758;6.872;2023-08-17T05:32:03;3.83;;;1.60;;
37529;SDS011;23374;52.758;6.872;2023-08-17T05:34:24;4.80;;;1.70;;
37529;SDS011;23374;52.758;6.872;2023-08-17T05:36:45;5.13;;;1.60;;
37529;SDS011;23374;52.758;6.872;2023-08-17T05:39:05;3.90;;;1.53;;
37529;SDS011;23374;52.758;6.872;2023-08-17T05:41:26;4.47;;;1.90;;
37529;SDS011;23374;52.758;6.872;2023-08-17T05:43:47;3.73;;;1.37;;
37529;SDS011;23374;52.758;6.872;2023-08-17T05:46:08;3.80;;;1.57;;
37529;SDS011;23374;52.758;6.872;2023-08-17T05:48:28;5.17;;;1.90;;
37529;SDS011;23374;52.758;6.872;2023-08-17T05:50:49;3.57;;;1.70;;
37529;SDS011;23374;52.758;6.872;2023-08-17T05:53:09;5.57;;;1.60;;
37529;SDS011;23374;52.758;6.872;2023-08-17T05:55:29;2.43;;;1.40;;
37529;SDS011;23374;52.758;6.872;2023-08-17T05:57:50;2.70;;;1.57;;
37529;SDS011;23374;52.758;6.872;2023-08-17T06:00:13;3.50;;;1.73;;
37529;SDS011;23374;52.758;6.872;2023-08-17T06:02:35;4.50;;;1.47;;
37529;SDS011;23374;52.758;6.872;2023-08-17T06:04:55;5.97;;;1.70;;
37529;SDS011;23374;52.758;6.872;2023-08-17T06:07:15;3.60;;;1.70;;
37529;SDS011;23374;52.758;6.872;2023-08-17T06:09:36;8.63;;;2.00;;
37529;SDS011;23374;52.758;6.872;2023-08-17T06:11:56;2.20;;;1.53;;
37529;SDS011;23374;52.758;6.872;2023-08-17T06:14:17;4.70;;;1.97;;
37529;SDS011;23374;52.758;6.872;2023-08-17T06:16:37;6.33;;;1.70;;
37529;SDS011;23374;52.758;6.872;2023-08-17T06:18:58;3.23;;;1.60;;
37529;SDS011;23374;52.758;6.872;2023-08-17T06:21:19;2.60;;;1.43;;
37529;SDS011;23374;52.758;6.872;2023-08-17T06:23:40;3.10;;;1.40;;
37529;SDS011;23374;52.758;6.872;2023-08-17T06:26:00;4.23;;;1.40;;
37529;SDS011;23374;52.758;6.872;2023-08-17T06:28:20;3.10;;;1.30;;
37529;SDS011;23374;52.758;6.872;2023-08-17T06:30:40;3.37;;;1.20;;
37529;SDS011;23374;52.758;6.872;2023-08-17T06:33:01;2.87;;;1.43;;
37529;SDS011;23374;52.758;6.872;2023-08-17T06:35:21;3.27;;;1.60;;
37529;SDS011;23374;52.758;6.872;2023-08-17T06:37:42;6.10;;;1.43;;
37529;SDS011;23374;52.758;6.872;2023-08-17T06:40:03;2.93;;;1.40;;
37529;SDS011;23374;52.758;6.872;2023-08-17T06:42:29;4.90;;;1.33;;
37529;SDS011;23374;52.758;6.872;2023-08-17T06:44:49;4.60;;;1.43;;
37529;SDS011;23374;52.758;6.872;2023-08-17T06:47:09;3.87;;;1.40;;
37529;SDS011;23374;52.758;6.872;2023-08-17T06:49:30;5.73;;;1.27;;
37529;SDS011;23374;52.758;6.872;2023-08-17T06:51:50;1.80;;;1.17;;
37529;SDS011;23374;52.758;6.872;2023-08-17T06:54:11;3.40;;;1.33;;
37529;SDS011;23374;52.758;6.872;2023-08-17T06:56:31;8.20;;;1.20;;
37529;SDS011;23374;52.758;6.872;2023-08-17T06:58:51;2.43;;;1.00;;
37529;SDS011;23374;52.758;6.872;2023-08-17T07:01:11;3.33;;;1.17;;
37529;SDS011;23374;52.758;6.872;2023-08-17T07:03:31;1.90;;;1.33;;
37529;SDS011;23374;52.758;6.872;2023-08-17T07:05:51;3.87;;;1.10;;
37529;SDS011;23374;52.758;6.872;2023-08-17T07:08:12;4.27;;;1.10;;
37529;SDS011;23374;52.758;6.872;2023-08-17T07:10:33;2.57;;;1.10;;
37529;SDS011;23374;52.758;6.872;2023-08-17T07:12:53;3.23;;;1.20;;
37529;SDS011;23374;52.758;6.872;2023-08-17T07:15:13;4.77;;;1.20;;
37529;SDS011;23374;52.758;6.872;2023-08-17T07:17:34;2.30;;;0.97;;
37529;SDS011;23374;52.758;6.872;2023-08-17T07:19:56;3.60;;;1.30;;
37529;SDS011;23374;52.758;6.872;2023-08-17T07:22:16;2.47;;;1.47;;
37529;SDS011;23374;52.758;6.872;2023-08-17T07:24:37;3.70;;;1.10;;
37529;SDS011;23374;52.758;6.872;2023-08-17T07:26:58;4.07;;;0.93;;
37529;SDS011;23374;52.758;6.872;2023-08-17T07:29:18;1.33;;;1.00;;
37529;SDS011;23374;52.758;6.872;2023-08-17T07:31:39;3.50;;;0.90;;
37529;SDS011;23374;52.758;6.872;2023-08-17T07:34:00;2.70;;;1.10;;
37529;SDS011;23374;52.758;6.872;2023-08-17T07:36:20;3.73;;;1.27;;
37529;SDS011;23374;52.758;6.872;2023-08-17T07:38:40;3.27;;;1.57;;
37529;SDS011;23374;52.758;6.872;2023-08-17T07:41:00;2.63;;;1.10;;
37529;SDS011;23374;52.758;6.872;2023-08-17T07:43:20;3.33;;;1.30;;
37529;SDS011;23374;52.758;6.872;2023-08-17T07:45:41;2.70;;;1.10;;
37529;SDS011;23374;52.758;6.872;2023-08-17T07:48:01;3.50;;;1.10;;
37529;SDS011;23374;52.758;6.872;2023-08-17T07:50:22;2.03;;;1.10;;
37529;SDS011;23374;52.758;6.872;2023-08-17T07:52:42;7.00;;;1.40;;
37529;SDS011;23374;52.758;6.872;2023-08-17T07:55:03;3.63;;;1.50;;
37529;SDS011;23374;52.758;6.872;2023-08-17T07:57:25;1.87;;;1.27;;
37529;SDS011;23374;52.758;6.872;2023-08-17T07:59:45;2.93;;;1.10;;
37529;SDS011;23374;52.758;6.872;2023-08-17T08:02:05;3.10;;;1.23;;
37529;SDS011;23374;52.758;6.872;2023-08-17T08:04:26;3.53;;;1.10;;
37529;SDS011;23374;52.758;6.872;2023-08-17T08:06:46;4.00;;;1.37;;
37529;SDS011;23374;52.758;6.872;2023-08-17T08:09:07;2.60;;;1.03;;
37529;SDS011;23374;52.758;6.872;2023-08-17T08:11:27;3.43;;;1.20;;
37529;SDS011;23374;52.758;6.872;2023-08-17T08:13:49;3.77;;;1.33;;
37529;SDS011;23374;52.758;6.872;2023-08-17T08:16:10;2.03;;;1.20;;
37529;SDS011;23374;52.758;6.872;2023-08-17T08:18:30;4.40;;;1.23;;
37529;SDS011;23374;52.758;6.872;2023-08-17T08:20:51;1.23;;;1.00;;
37529;SDS011;23374;52.758;6.872;2023-08-17T08:23:11;2.83;;;1.03;;
37529;SDS011;23374;52.758;6.872;2023-08-17T08:25:32;3.77;;;1.07;;
37529;SDS011;23374;52.758;6.872;2023-08-17T08:27:52;1.73;;;1.10;;
37529;SDS011;23374;52.758;6.872;2023-08-17T08:30:12;3.23;;;1.50;;
37529;SDS011;23374;52.758;6.872;2023-08-17T08:32:32;2.53;;;1.07;;
37529;SDS011;23374;52.758;6.872;2023-08-17T08:34:53;1.23;;;1.00;;
37529;SDS011;23374;52.758;6.872;2023-08-17T08:37:13;1.83;;;1.10;;
37529;SDS011;23374;52.758;6.872;2023-08-17T08:39:47;2.63;;;1.10;;
37529;SDS011;23374;52.758;6.872;2023-08-17T08:42:11;1.33;;;1.10;;
37529;SDS011;23374;52.758;6.872;2023-08-17T08:44:32;3.43;;;1.00;;
37529;SDS011;23374;52.758;6.872;2023-08-17T08:46:53;4.37;;;1.10;;
37529;SDS011;23374;52.758;6.872;2023-08-17T08:49:19;5.37;;;1.07;;
37529;SDS011;23374;52.758;6.872;2023-08-17T08:51:44;2.00;;;1.37;;
37529;SDS011;23374;52.758;6.872;2023-08-17T08:54:08;1.40;;;1.03;;
37529;SDS011;23374;52.758;6.872;2023-08-17T08:56:33;3.67;;;1.20;;
37529;SDS011;23374;52.758;6.872;2023-08-17T08:58:57;1.87;;;1.20;;
37529;SDS011;23374;52.758;6.872;2023-08-17T09:01:21;2.30;;;1.10;;
37529;SDS011;23374;52.758;6.872;2023-08-17T09:03:42;1.23;;;0.90;;
37529;SDS011;23374;52.758;6.872;2023-08-17T09:06:04;2.30;;;0.90;;
37529;SDS011;23374;52.758;6.872;2023-08-17T09:08:29;2.10;;;0.97;;
37529;SDS011;23374;52.758;6.872;2023-08-17T09:10:50;3.57;;;1.27;;
37529;SDS011;23374;52.758;6.872;2023-08-17T09:13:11;1.97;;;1.00;;
37529;SDS011;23374;52.758;6.872;2023-08-17T09:15:31;1.53;;;1.00;;
37529;SDS011;23374;52.758;6.872;2023-08-17T09:17:51;1.23;;;0.83;;
37529;SDS011;23374;52.758;6.872;2023-08-17T09:20:12;3.70;;;1.10;;
37529;SDS011;23374;52.758;6.872;2023-08-17T09:22:53;2.83;;;1.10;;
37529;SDS011;23374;52.758;6.872;2023-08-17T09:25:22;2.93;;;1.10;;
37529;SDS011;23374;52.758;6.872;2023-08-17T09:27:43;2.67;;;1.20;;
37529;SDS011;23374;52.758;6.872;2023-08-17T09:30:09;1.87;;;1.20;;
37529;SDS011;23374;52.758;6.872;2023-08-17T09:32:31;3.73;;;1.53;;
37529;SDS011;23374;52.758;6.872;2023-08-17T09:34:52;1.53;;;1.17;;
37529;SDS011;23374;52.758;6.872;2023-08-17T09:37:13;2.20;;;1.30;;
37529;SDS011;23374;52.758;6.872;2023-08-17T09:39:33;3.17;;;1.50;;
37529;SDS011;23374;52.758;6.872;2023-08-17T09:41:54;5.73;;;1.50;;
37529;SDS011;23374;52.758;6.872;2023-08-17T09:44:14;2.67;;;1.23;;
37529;SDS011;23374;52.758;6.872;2023-08-17T09:46:36;2.50;;;1.40;;
37529;SDS011;23374;52.758;6.872;2023-08-17T09:48:56;5.07;;;1.60;;
37529;SDS011;23374;52.758;6.872;2023-08-17T09:51:17;3.40;;;1.33;;
37529;SDS011;23374;52.758;6.872;2023-08-17T09:53:37;2.70;;;1.33;;
37529;SDS011;23374;52.758;6.872;2023-08-17T09:55:58;2.73;;;1.20;;
37529;SDS011;23374;52.758;6.872;2023-08-17T09:58:20;5.00;;;1.53;;
37529;SDS011;23374;52.758;6.872;2023-08-17T10:00:45;3.63;;;1.50;;
37529;SDS011;23374;52.758;6.872;2023-08-17T10:03:08;6.73;;;1.27;;
37529;SDS011;23374;52.758;6.872;2023-08-17T10:05:31;4.47;;;1.70;;
37529;SDS011;23374;52.758;6.872;2023-08-17T10:08:01;1.93;;;1.50;;
37529;SDS011;23374;52.758;6.872;2023-08-17T10:10:27;5.03;;;1.50;;
37529;SDS011;23374;52.758;6.872;2023-08-17T10:13:03;3.17;;;1.43;;
37529;SDS011;23374;52.758;6.872;2023-08-17T10:15:29;4.23;;;1.60;;
37529;SDS011;23374;52.758;6.872;2023-08-17T10:17:59;4.90;;;1.60;;
37529;SDS011;23374;52.758;6.872;2023-08-17T10:20:29;2.43;;;1.67;;
37529;SDS011;23374;52.758;6.872;2023-08-17T10:23:06;3.87;;;1.60;;
37529;SDS011;23374;52.758;6.872;2023-08-17T10:25:32;3.67;;;1.77;;
37529;SDS011;23374;52.758;6.872;2023-08-17T10:27:53;3.77;;;2.03;;
37529;SDS011;23374;52.758;6.872;2023-08-17T10:30:14;3.57;;;1.80;;
37529;SDS011;23374;52.758;6.872;2023-08-17T10:32:35;2.93;;;1.70;;
37529;SDS011;23374;52.758;6.872;2023-08-17T10:34:56;2.70;;;1.70;;
37529;SDS011;23374;52.758;6.872;2023-08-17T10:37:19;3.80;;;2.10;;
37529;SDS011;23374;52.758;6.872;2023-08-17T10:39:47;2.03;;;1.50;;
37529;SDS011;23374;52.758;6.872;2023-08-17T10:42:09;3.33;;;1.87;;
37529;SDS011;23374;52.758;6.872;2023-08-17T10:44:51;2.73;;;2.00;;
37529;SDS011;23374;52.758;6.872;2023-08-17T10:47:25;4.10;;;1.83;;
37529;SDS011;23374;52.758;6.872;2023-08-17T10:50:06;3.33;;;2.00;;
37529;SDS011;23374;52.758;6.872;2023-08-17T10:52:42;3.77;;;1.83;;
37529;SDS011;23374;52.758;6.872;2023-08-17T10:55:08;3.60;;;2.10;;
37529;SDS011;23374;52.758;6.872;2023-08-17T10:57:41;6.57;;;2.20;;
37529;SDS011;23374;52.758;6.872;2023-08-17T11:00:22;5.23;;;2.20;;
37529;SDS011;23374;52.758;6.872;2023-08-17T11:03:20;5.07;;;2.30;;
37529;SDS011;23374;52.758;6.872;2023-08-17T11:05:46;3.00;;;1.80;;
37529;SDS011;23374;52.758;6.872;2023-08-17T11:08:55;4.17;;;1.83;;
37529;SDS011;23374;52.758;6.872;2023-08-17T11:11:16;3.83;;;2.13;;
37529;SDS011;23374;52.758;6.872;2023-08-17T11:13:40;4.43;;;2.50;;
37529;SDS011;23374;52.758;6.872;2023-08-17T11:16:02;4.10;;;2.33;;
37529;SDS011;23374;52.758;6.872;2023-08-17T11:18:23;3.03;;;2.10;;
37529;SDS011;23374;52.758;6.872;2023-08-17T11:20:44;2.73;;;2.23;;
37529;SDS011;23374;52.758;6.872;2023-08-17T11:23:05;4.63;;;2.07;;
37529;SDS011;23374;52.758;6.872;2023-08-17T11:25:27;4.53;;;2.40;;
37529;SDS011;23374;52.758;6.872;2023-08-17T11:27:48;4.23;;;2.30;;
37529;SDS011;23374;52.758;6.872;2023-08-17T11:30:10;4.73;;;2.37;;
37529;SDS011;23374;52.758;6.872;2023-08-17T11:32:32;5.00;;;2.80;;
37529;SDS011;23374;52.758;6.872;2023-08-17T11:34:52;5.13;;;2.80;;
37529;SDS011;23374;52.758;6.872;2023-08-17T11:37:13;7.10;;;2.90;;
37529;SDS011;23374;52.758;6.872;2023-08-17T11:39:34;4.80;;;2.50;;
37529;SDS011;23374;52.758;6.872;2023-08-17T11:41:54;3.60;;;2.50;;
37529;SDS011;23374;52.758;6.872;2023-08-17T11:44:15;3.50;;;2.60;;
37529;SDS011;23374;52.758;6.872;2023-08-17T11:46:40;4.63;;;2.70;;
37529;SDS011;23374;52.758;6.872;2023-08-17T11:49:00;4.40;;;2.70;;
37529;SDS011;23374;52.758;6.872;2023-08-17T11:51:31;4.47;;;3.10;;
37529;SDS011;23374;52.758;6.872;2023-08-17T11:53:51;3.30;;;2.60;;
37529;SDS011;23374;52.758;6.872;2023-08-17T11:56:11;6.40;;;2.87;;
37529;SDS011;23374;52.758;6.872;2023-08-17T11:58:42;4.50;;;2.83;;
37529;SDS011;23374;52.758;6.872;2023-08-17T12:01:08;3.07;;;2.60;;
37529;SDS011;23374;52.758;6.872;2023-08-17T12:03:31;4.30;;;2.90;;
37529;SDS011;23374;52.758;6.872;2023-08-17T12:05:51;3.60;;;2.50;;
37529;SDS011;23374;52.758;6.872;2023-08-17T12:08:12;3.63;;;2.70;;
37529;SDS011;23374;52.758;6.872;2023-08-17T12:10:34;3.43;;;2.63;;
37529;SDS011;23374;52.758;6.872;2023-08-17T12:12:58;4.73;;;2.57;;
37529;SDS011;23374;52.758;6.872;2023-08-17T12:15:22;2.50;;;2.20;;
37529;SDS011;23374;52.758;6.872;2023-08-17T12:17:47;6.27;;;2.50;;
37529;SDS011;23374;52.758;6.872;2023-08-17T12:20:15;3.20;;;2.67;;
37529;SDS011;23374;52.758;6.872;2023-08-17T12:22:39;4.57;;;2.93;;
37529;SDS011;23374;52.758;6.872;2023-08-17T12:24:59;4.20;;;2.73;;
37529;SDS011;23374;52.758;6.872;2023-08-17T12:27:22;4.17;;;2.73;;
37529;SDS011;23374;52.758;6.872;2023-08-17T12:29:50;5.93;;;2.60;;
37529;SDS011;23374;52.758;6.872;2023-08-17T12:32:13;4.50;;;2.90;;
37529;SDS011;23374;52.758;6.872;2023-08-17T12:34:36;4.40;;;2.80;;
37529;SDS011;23374;52.758;6.872;2023-08-17T12:36:56;4.70;;;3.27;;
37529;SDS011;23374;52.758;6.872;2023-08-17T12:39:16;6.30;;;2.73;;
37529;SDS011;23374;52.758;6.872;2023-08-17T12:41:37;4.37;;;2.73;;
37529;SDS011;23374;52.758;6.872;2023-08-17T12:43:57;3.13;;;2.60;;
37529;SDS011;23374;52.758;6.872;2023-08-17T12:46:19;4.53;;;2.83;;
37529;SDS011;23374;52.758;6.872;2023-08-17T12:48:41;5.77;;;3.03;;
37529;SDS011;23374;52.758;6.872;2023-08-17T12:51:02;3.77;;;3.00;;
37529;SDS011;23374;52.758;6.872;2023-08-17T12:53:23;6.30;;;3.40;;
37529;SDS011;23374;52.758;6.872;2023-08-17T12:55:44;5.93;;;2.80;;
37529;SDS011;23374;52.758;6.872;2023-08-17T12:58:07;8.03;;;3.17;;
37529;SDS011;23374;52.758;6.872;2023-08-17T13:00:29;6.33;;;3.13;;
37529;SDS011;23374;52.758;6.872;2023-08-17T13:02:49;4.73;;;3.20;;
37529;SDS011;23374;52.758;6.872;2023-08-17T13:05:11;4.37;;;3.30;;
37529;SDS011;23374;52.758;6.872;2023-08-17T13:07:31;4.57;;;3.00;;
37529;SDS011;23374;52.758;6.872;2023-08-17T13:09:52;5.40;;;3.03;;
37529;SDS011;23374;52.758;6.872;2023-08-17T13:12:12;4.40;;;2.70;;
37529;SDS011;23374;52.758;6.872;2023-08-17T13:14:32;4.90;;;3.20;;
37529;SDS011;23374;52.758;6.872;2023-08-17T13:16:52;7.27;;;2.93;;
37529;SDS011;23374;52.758;6.872;2023-08-17T13:19:13;6.17;;;3.20;;
37529;SDS011;23374;52.758;6.872;2023-08-17T13:21:33;7.10;;;3.47;;
37529;SDS011;23374;52.758;6.872;2023-08-17T13:23:54;4.40;;;3.40;;
37529;SDS011;23374;52.758;6.872;2023-08-17T13:26:14;5.40;;;3.60;;
37529;SDS011;23374;52.758;6.872;2023-08-17T13:28:35;4.60;;;3.03;;
37529;SDS011;23374;52.758;6.872;2023-08-17T13:30:55;4.90;;;3.60;;
37529;SDS011;23374;52.758;6.872;2023-08-17T13:33:15;6.73;;;3.27;;
37529;SDS011;23374;52.758;6.872;2023-08-17T13:35:38;5.37;;;3.77;;
37529;SDS011;23374;52.758;6.872;2023-08-17T13:37:59;4.50;;;3.20;;
37529;SDS011;23374;52.758;6.872;2023-08-17T13:40:20;4.00;;;3.20;;
37529;SDS011;23374;52.758;6.872;2023-08-17T13:42:40;4.90;;;3.23;;
37529;SDS011;23374;52.758;6.872;2023-08-17T13:45:02;6.53;;;3.30;;
37529;SDS011;23374;52.758;6.872;2023-08-17T13:47:23;4.43;;;3.20;;
37529;SDS011;23374;52.758;6.872;2023-08-17T13:49:43;4.20;;;3.30;;
37529;SDS011;23374;52.758;6.872;2023-08-17T13:52:05;4.50;;;3.40;;
37529;SDS011;23374;52.758;6.872;2023-08-17T13:54:25;5.30;;;3.00;;
37529;SDS011;23374;52.758;6.872;2023-08-17T13:56:45;3.27;;;2.80;;
37529;SDS011;23374;52.758;6.872;2023-08-17T13:59:05;8.03;;;3.13;;
37529;SDS011;23374;52.758;6.872;2023-08-17T14:01:26;3.03;;;2.50;;
37529;SDS011;23374;52.758;6.872;2023-08-17T14:03:46;4.67;;;3.00;;
37529;SDS011;23374;52.758;6.872;2023-08-17T14:06:07;4.43;;;3.10;;
37529;SDS011;23374;52.758;6.872;2023-08-17T14:08:27;6.67;;;3.50;;
37529;SDS011;23374;52.758;6.872;2023-08-17T14:10:48;5.37;;;3.33;;
37529;SDS011;23374;52.758;6.872;2023-08-17T14:13:09;3.67;;;3.17;;
37529;SDS011;23374;52.758;6.872;2023-08-17T14:15:29;7.53;;;3.30;;
37529;SDS011;23374;52.758;6.872;2023-08-17T14:17:50;4.20;;;3.30;;